createdAt,value
2023-02-26T00:02:10.951Z,95.64
2023-02-26T00:04:39.487Z,95.80
2023-02-26T00:07:11.749Z,95.78
2023-02-26T00:09:40.392Z,95.79
2023-02-26T00:12:11.707Z,95.80
2023-02-26T00:14:40.883Z,95.68
2023-02-26T00:17:36.780Z,95.66
2023-02-26T00:20:11.954Z,95.47
2023-02-26T00:22:40.860Z,95.61
2023-02-26T00:25:09.718Z,95.83
2023-02-26T00:27:38.445Z,95.87
2023-02-26T00:30:08.563Z,96.15
2023-02-26T00:32:39.974Z,96.29
2023-02-26T00:35:10.318Z,96.37
2023-02-26T00:38:05.261Z,96.50
2023-02-26T00:40:41.449Z,96.56
2023-02-26T00:46:07.198Z,96.41
2023-02-26T00:48:59.181Z,96.66
2023-02-26T00:51:37.337Z,96.67
2023-02-26T00:54:20.476Z,96.82
2023-02-26T00:56:49.020Z,96.99
2023-02-26T00:59:16.996Z,96.90
2023-02-26T01:01:44.415Z,96.88
2023-02-26T01:04:15.167Z,96.88
2023-02-26T01:06:46.779Z,96.51
2023-02-26T01:09:34.006Z,96.42
2023-02-26T01:12:12.351Z,96.42
2023-02-26T01:14:39.709Z,96.34
2023-02-26T01:17:25.313Z,96.47
2023-02-26T01:19:57.979Z,96.62
2023-02-26T01:22:48.191Z,96.55
2023-02-26T01:25:42.148Z,96.67
2023-02-26T01:28:09.656Z,96.36
2023-02-26T01:30:38.553Z,96.40
2023-02-26T01:33:14.701Z,96.21
2023-02-26T01:35:44.824Z,96.51
2023-02-26T01:38:42.353Z,96.69
2023-02-26T01:42:07.942Z,96.90
2023-02-26T01:44:38.510Z,96.91
2023-02-26T01:47:27.247Z,97.01
2023-02-26T01:49:57.729Z,96.94
2023-02-26T01:52:49.268Z,96.53
2023-02-26T01:55:20.808Z,96.15
2023-02-26T01:57:49.444Z,96.32
2023-02-26T02:00:16.506Z,95.97
2023-02-26T02:02:45.060Z,95.93
2023-02-26T02:05:35.470Z,95.79
2023-02-26T02:08:03.581Z,95.99
2023-02-26T02:10:30.538Z,95.45
2023-02-26T02:13:23.874Z,95.52
2023-02-26T02:16:03.376Z,95.50
2023-02-26T02:19:08.853Z,95.26
2023-02-26T02:21:41.701Z,94.68
2023-02-26T02:24:14.120Z,94.43
2023-02-26T02:26:44.096Z,94.22
2023-02-26T02:29:37.480Z,94.37
2023-02-26T02:32:14.139Z,94.61
2023-02-26T02:34:49.312Z,94.84
2023-02-26T02:37:38.308Z,94.88
2023-02-26T02:40:17.818Z,95.04
2023-02-26T02:43:15.393Z,95.12
2023-02-26T02:45:55.904Z,95.21
2023-02-26T02:48:31.213Z,95.11
2023-02-26T02:51:23.749Z,95.19
2023-02-26T02:53:53.863Z,95.22
2023-02-26T02:56:28.334Z,95.47
2023-02-26T02:59:19.162Z,95.52
2023-02-26T03:01:48.466Z,95.52
2023-02-26T03:04:16.067Z,95.44
2023-02-26T03:06:45.166Z,95.38
2023-02-26T03:09:15.510Z,95.51
2023-02-26T03:11:43.692Z,95.32
2023-02-26T03:14:10.911Z,94.94
2023-02-26T03:17:07.046Z,94.77
2023-02-26T03:19:53.531Z,94.57
2023-02-26T03:23:00.040Z,94.63
2023-02-26T03:25:31.895Z,94.63
2023-02-26T03:28:16.037Z,94.67
2023-02-26T03:30:52.334Z,94.65
2023-02-26T03:33:31.665Z,94.34
2023-02-26T03:36:22.955Z,93.99
2023-02-26T03:39:14.883Z,93.23
2023-02-26T03:41:49.279Z,92.80
2023-02-26T03:44:25.379Z,92.74
2023-02-26T03:46:55.087Z,92.64
2023-02-26T03:49:32.672Z,92.85
2023-02-26T03:52:00.285Z,92.92
2023-02-26T03:55:17.612Z,92.62
2023-02-26T03:58:20.219Z,92.35
2023-02-26T04:01:09.184Z,92.26
2023-02-26T04:03:44.037Z,91.94
2023-02-26T04:06:10.942Z,91.87
2023-02-26T04:08:38.388Z,91.85
2023-02-26T04:11:16.613Z,91.97
2023-02-26T04:13:44.237Z,92.17
2023-02-26T04:16:14.535Z,92.15
2023-02-26T04:18:43.908Z,92.04
2023-02-26T04:21:14.487Z,91.97
2023-02-26T04:23:42.044Z,92.13
2023-02-26T04:26:09.143Z,92.20
2023-02-26T04:28:39.254Z,91.97
2023-02-26T04:31:06.197Z,91.74
2023-02-26T04:33:33.735Z,91.50
2023-02-26T04:36:00.723Z,91.44
2023-02-26T04:38:27.935Z,91.87
2023-02-26T04:40:56.236Z,92.47
2023-02-26T04:43:24.049Z,92.95
2023-02-26T04:46:00.385Z,93.70
2023-02-26T04:48:27.263Z,94.22
2023-02-26T04:50:55.527Z,94.75
2023-02-26T04:53:22.480Z,94.80
2023-02-26T04:55:52.171Z,94.77
2023-02-26T04:58:21.694Z,95.10
2023-02-26T05:00:49.847Z,95.06
2023-02-26T05:03:16.942Z,95.11
2023-02-26T05:05:44.320Z,95.16
2023-02-26T05:08:16.428Z,94.92
2023-02-26T05:10:43.631Z,94.80
2023-02-26T05:13:10.592Z,94.40
2023-02-26T05:15:37.864Z,94.23
2023-02-26T05:18:07.248Z,94.07
2023-02-26T05:20:34.207Z,93.81
2023-02-26T05:23:04.058Z,93.66
2023-02-26T05:25:31.790Z,93.15
2023-02-26T05:28:00.817Z,93.03
2023-02-26T05:30:29.340Z,93.10
2023-02-26T05:32:56.556Z,93.30
2023-02-26T05:35:23.577Z,93.08
2023-02-26T05:37:51.408Z,93.14
2023-02-26T05:40:20.822Z,93.45
2023-02-26T05:42:47.723Z,93.63
2023-02-26T05:45:15.681Z,93.66
2023-02-26T05:47:47.751Z,93.43
2023-02-26T05:50:14.814Z,93.56
2023-02-26T05:52:42.632Z,93.03
2023-02-26T05:55:13.244Z,93.19
2023-02-26T05:57:40.149Z,93.42
2023-02-26T06:00:08.033Z,93.22
2023-02-26T06:02:41.661Z,93.20
2023-02-26T06:05:09.422Z,93.70
2023-02-26T06:07:36.324Z,93.93
2023-02-26T06:10:03.485Z,94.10
2023-02-26T06:12:34.893Z,94.29
2023-02-26T06:15:37.409Z,93.93
2023-02-26T06:18:04.662Z,93.62
2023-02-26T06:20:35.534Z,93.38
2023-02-26T06:23:02.852Z,93.05
2023-02-26T06:25:35.217Z,92.91
2023-02-26T06:28:02.788Z,93.04
2023-02-26T06:30:29.895Z,92.93
2023-02-26T06:32:58.223Z,93.04
2023-02-26T06:35:25.124Z,92.79
2023-02-26T06:37:52.220Z,92.86
2023-02-26T06:40:20.398Z,92.83
2023-02-26T06:42:47.379Z,92.48
2023-02-26T06:45:14.289Z,92.47
2023-02-26T06:47:41.420Z,92.25
2023-02-26T06:50:09.710Z,92.28
2023-02-26T06:52:39.995Z,92.37
2023-02-26T06:55:07.558Z,92.88
2023-02-26T06:57:34.764Z,92.98
2023-02-26T07:00:09.675Z,93.14
2023-02-26T07:02:37.545Z,93.26
2023-02-26T07:05:04.726Z,92.89
2023-02-26T07:07:32.651Z,92.52
2023-02-26T07:09:59.733Z,92.24
2023-02-26T07:12:26.566Z,92.10
2023-02-26T07:14:53.512Z,92.10
2023-02-26T07:17:24.600Z,91.93
2023-02-26T07:19:53.548Z,92.01
2023-02-26T07:22:22.117Z,92.02
2023-02-26T07:24:49.714Z,92.41
2023-02-26T07:27:16.849Z,92.24
2023-02-26T07:29:48.002Z,92.02
2023-02-26T07:32:15.260Z,92.27
2023-02-26T07:34:42.181Z,92.17
2023-02-26T07:37:09.262Z,91.85
2023-02-26T07:39:36.300Z,91.34
2023-02-26T07:42:04.072Z,91.08
2023-02-26T07:44:31.198Z,90.52
2023-02-26T07:46:58.232Z,90.06
2023-02-26T07:49:25.033Z,89.84
2023-02-26T07:51:52.144Z,89.63
2023-02-26T07:54:21.422Z,89.46
2023-02-26T07:56:53.238Z,88.94
2023-02-26T07:59:20.029Z,88.73
2023-02-26T08:01:54.171Z,88.60
2023-02-26T08:04:21.455Z,88.14
2023-02-26T08:06:48.675Z,87.67
2023-02-26T08:09:15.685Z,87.20
2023-02-26T08:11:42.864Z,86.56
2023-02-26T08:14:10.803Z,85.90
2023-02-26T08:16:39.500Z,85.54
2023-02-26T08:19:07.119Z,85.58
2023-02-26T08:21:33.943Z,85.59
2023-02-26T08:24:00.909Z,85.59
2023-02-26T08:26:28.420Z,85.59
2023-02-26T08:28:56.486Z,85.40
2023-02-26T08:31:25.347Z,85.28
2023-02-26T08:37:59.688Z,84.66
2023-02-26T08:40:28.439Z,84.25
2023-02-26T08:43:04.707Z,83.78
2023-02-26T08:45:32.897Z,84.03
2023-02-26T08:47:59.985Z,83.84
2023-02-26T08:50:27.029Z,83.92
2023-02-26T08:52:54.330Z,83.83
2023-02-26T08:55:22.730Z,83.84
2023-02-26T08:57:52.310Z,84.14
2023-02-26T09:00:21.596Z,84.63
2023-02-26T09:02:48.772Z,84.79
2023-02-26T09:05:17.058Z,84.49
2023-02-26T09:07:45.190Z,84.01
2023-02-26T09:10:14.336Z,84.10
2023-02-26T09:12:42.836Z,84.31
2023-02-26T09:15:10.407Z,84.67
2023-02-26T09:17:38.543Z,84.47
2023-02-26T09:20:08.586Z,84.39
2023-02-26T09:22:36.665Z,84.40
2023-02-26T09:25:04.348Z,84.53
2023-02-26T09:27:32.449Z,83.99
2023-02-26T09:29:59.671Z,83.56
2023-02-26T09:32:26.824Z,83.33
2023-02-26T09:34:53.912Z,82.99
2023-02-26T09:37:21.313Z,82.71
2023-02-26T09:39:54.553Z,82.65
2023-02-26T09:42:44.398Z,82.45
2023-02-26T09:45:17.222Z,82.35
2023-02-26T09:47:52.382Z,82.31
2023-02-26T09:50:23.834Z,82.04
2023-02-26T09:53:13.647Z,82.02
2023-02-26T09:55:44.999Z,81.84
2023-02-26T09:58:26.056Z,81.95
2023-02-26T10:01:05.821Z,81.89
2023-02-26T10:03:58.401Z,81.66
2023-02-26T10:06:31.738Z,81.72
2023-02-26T10:09:18.434Z,81.82
2023-02-26T10:12:00.525Z,81.66
2023-02-26T10:14:42.522Z,81.68
2023-02-26T10:17:23.610Z,81.78
2023-02-26T10:19:54.752Z,82.10
2023-02-26T10:22:55.308Z,81.84
2023-02-26T10:25:30.291Z,81.66
2023-02-26T10:28:16.286Z,81.37
2023-02-26T10:31:14.877Z,81.50
2023-02-26T10:33:50.157Z,81.72
2023-02-26T10:39:36.707Z,82.19
2023-02-26T10:42:14.063Z,82.44
2023-02-26T10:45:50.481Z,82.61
2023-02-26T10:48:46.944Z,82.76
2023-02-26T10:51:19.826Z,83.04
2023-02-26T10:53:51.869Z,83.04
2023-02-26T10:56:32.120Z,83.43
2023-02-26T10:59:08.531Z,83.54
2023-02-26T11:01:37.025Z,83.30
2023-02-26T11:04:07.728Z,82.87
2023-02-26T11:07:02.792Z,82.52
2023-02-26T11:09:38.753Z,82.71
2023-02-26T11:12:13.593Z,82.91
2023-02-26T11:14:45.528Z,83.33
2023-02-26T11:17:23.303Z,83.71
2023-02-26T11:19:56.894Z,84.19
2023-02-26T11:22:27.473Z,84.39
2023-02-26T11:24:54.942Z,84.47
2023-02-26T11:27:31.625Z,84.30
2023-02-26T11:30:05.545Z,84.60
2023-02-26T11:32:36.045Z,84.56
2023-02-26T11:35:07.630Z,84.41
2023-02-26T11:37:37.778Z,84.55
2023-02-26T11:40:13.531Z,84.49
2023-02-26T11:42:58.309Z,84.40
2023-02-26T11:45:25.697Z,84.29
2023-02-26T11:48:07.389Z,84.18
2023-02-26T11:50:43.456Z,84.40
2023-02-26T11:53:23.705Z,84.51
2023-02-26T11:56:00.536Z,84.72
2023-02-26T11:58:30.706Z,84.69
2023-02-26T12:00:59.310Z,84.75
2023-02-26T12:03:28.436Z,85.10
2023-02-26T12:05:57.381Z,84.97
2023-02-26T12:08:43.527Z,84.81
2023-02-26T12:11:46.850Z,84.66
2023-02-26T12:14:21.294Z,84.60
2023-02-26T12:16:57.903Z,84.44
2023-02-26T12:19:48.345Z,84.51
2023-02-26T12:22:32.062Z,84.77
2023-02-26T12:25:31.631Z,84.98
2023-02-26T12:28:12.306Z,85.28
2023-02-26T12:30:48.525Z,85.55
2023-02-26T12:33:32.283Z,85.64
2023-02-26T12:36:17.161Z,85.56
2023-02-26T12:38:51.399Z,85.35
2023-02-26T12:41:50.777Z,85.18
2023-02-26T12:44:26.955Z,85.35
2023-02-26T12:47:30.445Z,85.24
2023-02-26T12:50:16.726Z,85.23
2023-02-26T12:53:02.870Z,85.48
2023-02-26T12:55:34.623Z,85.75
2023-02-26T12:58:14.097Z,86.09
2023-02-26T13:03:00.105Z,87.03
2023-02-26T13:05:50.625Z,87.22
2023-02-26T13:08:37.939Z,86.68
2023-02-26T13:11:56.197Z,86.68
2023-02-26T13:14:48.644Z,86.68
2023-02-26T13:17:22.622Z,86.86
2023-02-26T13:19:57.240Z,86.86
2023-02-26T13:22:29.872Z,87.09
2023-02-26T13:25:04.417Z,87.42
2023-02-26T13:27:37.589Z,87.64
2023-02-26T13:30:15.334Z,87.77
2023-02-26T13:32:48.204Z,88.10
2023-02-26T13:35:38.746Z,88.40
2023-02-26T13:39:05.309Z,88.60
2023-02-26T13:41:58.500Z,88.76
2023-02-26T13:44:50.181Z,88.99
2023-02-26T13:47:27.325Z,89.28
2023-02-26T13:50:04.705Z,89.27
2023-02-26T13:52:36.068Z,89.53
2023-02-26T13:55:07.685Z,89.35
2023-02-26T13:57:55.432Z,89.31
2023-02-26T14:00:31.029Z,89.22
2023-02-26T14:03:42.687Z,89.16
2023-02-26T14:06:37.274Z,89.10
2023-02-26T14:09:25.743Z,88.89
2023-02-26T14:15:38.695Z,89.86
2023-02-26T14:18:43.942Z,90.33
2023-02-26T14:21:29.524Z,90.35
2023-02-26T14:24:44.794Z,90.13
2023-02-26T14:27:18.177Z,89.74
2023-02-26T14:30:19.589Z,89.23
2023-02-26T14:33:13.838Z,88.98
2023-02-26T14:35:47.911Z,89.29
2023-02-26T14:38:37.593Z,89.76
2023-02-26T14:41:28.208Z,89.76
2023-02-26T14:44:24.206Z,89.73
2023-02-26T14:47:14.022Z,89.94
2023-02-26T14:49:47.204Z,88.91
2023-02-26T14:52:22.315Z,88.84
2023-02-26T14:55:13.283Z,88.87
2023-02-26T14:58:16.826Z,88.79
2023-02-26T15:01:19.379Z,89.21
2023-02-26T15:04:14.479Z,89.37
2023-02-26T15:07:00.883Z,89.37
2023-02-26T15:09:28.032Z,89.41
2023-02-26T15:12:05.206Z,89.32
2023-02-26T15:15:09.024Z,89.48
2023-02-26T15:17:58.837Z,89.33
2023-02-26T15:20:32.586Z,89.44
2023-02-26T15:23:05.378Z,89.70
2023-02-26T15:25:38.099Z,89.91
2023-02-26T15:28:12.522Z,90.10
2023-02-26T15:30:40.073Z,90.60
2023-02-26T15:33:13.457Z,90.59
2023-02-26T15:35:40.964Z,90.59
2023-02-26T15:38:08.676Z,90.36
2023-02-26T15:40:38.019Z,89.82
2023-02-26T15:43:06.536Z,89.44
2023-02-26T15:45:40.036Z,89.16
2023-02-26T15:48:13.832Z,89.34
2023-02-26T15:50:48.861Z,89.24
2023-02-26T15:53:46.365Z,89.56
2023-02-26T15:56:19.131Z,90.23
2023-02-26T15:59:01.917Z,90.26
2023-02-26T16:01:36.979Z,89.97
2023-02-26T16:04:06.692Z,89.77
2023-02-26T16:06:42.323Z,89.74
2023-02-26T16:09:16.498Z,89.91
2023-02-26T16:11:45.852Z,89.82
2023-02-26T16:14:17.867Z,89.72
2023-02-26T16:17:04.463Z,89.79
2023-02-26T16:19:36.222Z,89.63
2023-02-26T16:22:12.377Z,89.11
2023-02-26T16:24:39.449Z,88.91
2023-02-26T16:27:10.734Z,89.40
2023-02-26T16:29:46.328Z,90.04
2023-02-26T16:32:13.897Z,90.41
2023-02-26T16:34:43.862Z,90.12
2023-02-26T16:37:39.518Z,90.05
2023-02-26T16:43:34.874Z,89.74
2023-02-26T16:46:04.225Z,89.85
2023-02-26T16:48:43.579Z,90.41
2023-02-26T16:51:16.556Z,90.60
2023-02-26T16:53:50.484Z,90.81
2023-02-26T16:56:19.483Z,90.64
2023-02-26T16:58:55.940Z,90.59
2023-02-26T17:01:48.095Z,90.67
2023-02-26T17:04:17.921Z,90.89
2023-02-26T17:06:46.593Z,91.39
2023-02-26T17:09:37.324Z,91.74
2023-02-26T17:12:22.487Z,92.31
2023-02-26T17:14:57.558Z,92.74
2023-02-26T17:17:26.992Z,92.36
2023-02-26T17:19:54.404Z,92.37
2023-02-26T17:22:27.011Z,92.41
2023-02-26T17:24:55.045Z,92.52
2023-02-26T17:27:32.918Z,92.86
2023-02-26T17:30:04.686Z,92.72
2023-02-26T17:32:32.124Z,92.88
2023-02-26T17:35:01.334Z,92.48
2023-02-26T17:37:35.969Z,92.56
2023-02-26T17:40:07.803Z,92.58
2023-02-26T17:42:36.552Z,92.92
2023-02-26T17:45:03.944Z,93.43
2023-02-26T17:47:31.608Z,93.53
2023-02-26T17:49:59.644Z,93.55
2023-02-26T17:52:31.961Z,93.85
2023-02-26T17:55:00.899Z,94.42
2023-02-26T17:57:27.775Z,94.64
2023-02-26T17:59:54.818Z,94.85
2023-02-26T18:02:30.310Z,94.80
2023-02-26T18:05:08.045Z,95.08
2023-02-26T18:07:36.817Z,95.42
2023-02-26T18:10:04.345Z,95.24
2023-02-26T18:12:34.946Z,94.88
2023-02-26T18:15:02.238Z,94.53
2023-02-26T18:17:33.178Z,94.23
2023-02-26T18:20:00.647Z,93.97
2023-02-26T18:22:30.945Z,94.28
2023-02-26T18:25:17.782Z,94.48
2023-02-26T18:31:56.053Z,95.28
2023-02-26T18:34:38.770Z,95.17
2023-02-26T18:37:26.410Z,95.28
2023-02-26T18:39:59.641Z,95.05
2023-02-26T18:42:59.395Z,95.21
2023-02-26T18:45:32.250Z,95.56
2023-02-26T18:47:59.533Z,95.55
2023-02-26T18:50:45.628Z,95.04
2023-02-26T18:53:27.307Z,95.00
2023-02-26T18:56:00.014Z,94.63
2023-02-26T18:58:29.490Z,94.06
2023-02-26T19:01:04.865Z,93.97
2023-02-26T19:03:33.627Z,93.88
2023-02-26T19:06:09.575Z,94.36
2023-02-26T19:08:38.708Z,95.47
2023-02-26T19:13:59.467Z,95.92
2023-02-26T19:16:32.532Z,95.60
2023-02-26T19:19:12.819Z,95.05
2023-02-26T19:25:12.422Z,94.74
2023-02-26T19:27:42.965Z,94.73
2023-02-26T19:30:27.964Z,95.02
2023-02-26T19:33:21.715Z,95.02
2023-02-26T19:35:54.464Z,94.45
2023-02-26T19:38:24.587Z,93.94
2023-02-26T19:40:51.676Z,93.95
2023-02-26T19:43:19.663Z,94.51
2023-02-26T19:45:48.019Z,95.31
2023-02-26T19:48:18.069Z,95.19
2023-02-26T19:50:46.613Z,95.00
2023-02-26T19:53:19.597Z,94.74
2023-02-26T19:55:48.451Z,94.62
2023-02-26T19:58:19.587Z,94.75
2023-02-26T20:00:46.715Z,94.28
2023-02-26T20:03:13.925Z,94.66
2023-02-26T20:05:51.576Z,95.18
2023-02-26T20:08:31.368Z,95.27
2023-02-26T20:11:03.159Z,94.97
2023-02-26T20:13:39.367Z,94.85
2023-02-26T20:16:15.291Z,95.03
2023-02-26T20:18:45.277Z,94.93
2023-02-26T20:21:13.218Z,94.71
2023-02-26T20:23:42.553Z,94.64
2023-02-26T20:26:13.044Z,94.75
2023-02-26T20:28:43.167Z,94.92
2023-02-26T20:31:14.654Z,94.83
2023-02-26T20:33:42.825Z,94.75
2023-02-26T20:36:10.480Z,94.61
2023-02-26T20:38:37.413Z,94.24
2023-02-26T20:41:04.940Z,94.20
2023-02-26T20:43:32.737Z,94.68
2023-02-26T20:46:00.746Z,95.17
2023-02-26T20:48:28.319Z,95.13
2023-02-26T20:51:00.134Z,95.33
2023-02-26T20:53:27.879Z,94.68
2023-02-26T20:55:55.192Z,94.61
2023-02-26T20:58:24.862Z,94.81
2023-02-26T21:00:54.619Z,95.34
2023-02-26T21:03:24.384Z,96.15
2023-02-26T21:05:51.193Z,95.97
2023-02-26T21:08:20.493Z,95.93
2023-02-26T21:10:51.428Z,95.72
2023-02-26T21:13:21.861Z,95.49
2023-02-26T21:15:49.693Z,95.47
2023-02-26T21:18:16.575Z,95.59
2023-02-26T21:20:43.430Z,95.50
2023-02-26T21:23:10.795Z,95.61
2023-02-26T21:25:43.663Z,95.46
2023-02-26T21:28:10.871Z,95.71
2023-02-26T21:30:38.401Z,95.43
2023-02-26T21:33:06.534Z,95.37
2023-02-26T21:35:33.474Z,95.57
2023-02-26T21:38:01.877Z,95.44
2023-02-26T21:40:31.282Z,95.38
2023-02-26T21:42:58.830Z,95.44
2023-02-26T21:45:26.088Z,95.37
2023-02-26T21:47:53.555Z,95.51
2023-02-26T21:50:20.383Z,95.74
2023-02-26T21:52:53.278Z,95.89
2023-02-26T21:55:25.536Z,95.98
2023-02-26T21:57:52.382Z,95.72
2023-02-26T22:00:19.814Z,95.62
2023-02-26T22:02:46.798Z,95.84
2023-02-26T22:05:14.895Z,95.73
2023-02-26T22:07:42.613Z,95.27
2023-02-26T22:10:12.979Z,94.99
2023-02-26T22:12:42.242Z,95.01
2023-02-26T22:15:10.832Z,96.07
2023-02-26T22:17:42.168Z,96.41
2023-02-26T22:20:09.813Z,95.83
2023-02-26T22:22:37.017Z,95.57
2023-02-26T22:25:05.195Z,95.13
2023-02-26T22:27:32.321Z,94.53
2023-02-26T22:30:03.040Z,94.68
2023-02-26T22:32:30.454Z,95.13
2023-02-26T22:34:57.228Z,95.46
2023-02-26T22:37:24.324Z,95.30
2023-02-26T22:39:51.739Z,95.37
2023-02-26T22:42:21.979Z,95.25
2023-02-26T22:44:49.611Z,95.18
2023-02-26T22:47:16.943Z,95.47
2023-02-26T22:49:44.825Z,95.93
2023-02-26T22:52:12.150Z,95.59
2023-02-26T22:54:39.198Z,95.68
2023-02-26T22:57:08.167Z,95.63
2023-02-26T22:59:34.869Z,95.62
2023-02-26T23:02:05.149Z,95.52
2023-02-26T23:04:32.500Z,95.67
2023-02-26T23:06:59.759Z,96.12
2023-02-26T23:09:26.815Z,96.65
2023-02-26T23:11:53.630Z,96.70
2023-02-26T23:14:22.919Z,96.46
2023-02-26T23:16:49.651Z,96.57
2023-02-26T23:19:19.344Z,96.51
2023-02-26T23:21:46.138Z,96.63
2023-02-26T23:24:13.115Z,96.81
2023-02-26T23:26:39.966Z,96.81
2023-02-26T23:29:09.219Z,97.00
2023-02-26T23:31:36.310Z,96.73
2023-02-26T23:34:06.483Z,96.62
2023-02-26T23:36:34.022Z,96.37
2023-02-26T23:39:01.483Z,96.10
2023-02-26T23:41:28.590Z,95.64
2023-02-26T23:43:55.476Z,95.73
2023-02-26T23:46:23.992Z,96.27
2023-02-26T23:48:50.988Z,96.47
2023-02-26T23:51:17.752Z,96.46
2023-02-26T23:53:44.629Z,96.43
2023-02-26T23:56:11.394Z,95.97
2023-02-26T23:58:40.806Z,95.57
